Time;durP1;ratioP1;P1;durP2;ratioP2;P2;SDS_P1;SDS_P2;PMS_P1;PMS_P2;Temp;Humidity;BMP_temperature;BMP_pressure;BME280_temperature;BME280_humidity;BME280_pressure;Samples;Min_cycle;Max_cycle;Signal;HPM_P1;HPM_P2
2022/06/09 00:02:02;;;;;;;3.13;2.47;;;;;;;22.65;66.47;94067.25;5106590;28;20284;-86
2022/06/09 00:04:34;;;;;;;3.08;2.78;;;;;;;22.64;66.46;94071.66;5091221;28;20192;-83
2022/06/09 00:07:07;;;;;;;3.17;2.95;;;;;;;22.62;66.41;94062.47;5101727;28;20280;-79
2022/06/09 00:09:37;;;;;;;5.97;2.72;;;;;;;22.61;66.62;94066.91;5111500;28;20194;-84
2022/06/09 00:12:05;;;;;;;2.55;2.35;;;;;;;22.61;66.65;94071.31;5111199;28;20205;-82
2022/06/09 00:14:32;;;;;;;4.97;2.88;;;;;;;22.58;66.69;94072.56;5111922;28;20180;-83
2022/06/09 00:17:01;;;;;;;3.25;2.80;;;;;;;22.59;66.92;94068.94;5112344;28;20193;-80
2022/06/09 00:19:27;;;;;;;3.60;3.30;;;;;;;22.56;67.10;94066.78;5112017;28;20196;-83
2022/06/09 00:21:54;;;;;;;3.80;3.50;;;;;;;22.50;67.22;94055.47;5111451;28;20683;-84
2022/06/09 00:24:21;;;;;;;5.47;3.90;;;;;;;22.56;67.29;94063.38;5111211;28;20197;-85
2022/06/09 00:26:48;;;;;;;4.30;3.53;;;;;;;22.55;67.30;94067.81;5111466;28;20258;-82
2022/06/09 00:29:15;;;;;;;5.82;3.40;;;;;;;22.54;67.50;94056.59;5111394;28;20189;-83
2022/06/09 00:31:42;;;;;;;3.90;3.17;;;;;;;22.53;67.49;94060.19;5091638;28;20213;-84
2022/06/09 00:34:10;;;;;;;3.90;3.50;;;;;;;22.52;67.67;94047.41;5091646;28;20189;-84
2022/06/09 00:36:37;;;;;;;6.00;3.50;;;;;;;22.51;67.54;94046.63;5091435;28;20189;-84
2022/06/09 00:39:04;;;;;;;4.47;3.45;;;;;;;22.50;67.52;94052.06;5090473;28;20189;-84
2022/06/09 00:41:38;;;;;;;10.27;4.07;;;;;;;22.48;67.91;94054.09;5091721;28;20203;-82
2022/06/09 00:44:15;;;;;;;5.30;4.38;;;;;;;22.48;67.91;94049.66;5102353;28;20204;-79
2022/06/09 00:46:43;;;;;;;5.68;4.28;;;;;;;22.47;67.96;94050.69;5105273;28;20196;-80
2022/06/09 00:49:18;;;;;;;5.70;3.90;;;;;;;22.48;68.02;94051.50;5107410;28;20233;-83
2022/06/09 00:51:48;;;;;;;4.72;4.22;;;;;;;22.45;68.12;94047.53;5108232;28;20200;-77
2022/06/09 00:54:20;;;;;;;5.28;4.35;;;;;;;22.45;68.25;94039.72;5108946;28;20407;-78
2022/06/09 00:56:52;;;;;;;5.60;4.78;;;;;;;22.47;68.28;94036.88;5104363;28;20192;-84
2022/06/09 00:59:22;;;;;;;7.18;4.65;;;;;;;22.47;68.37;94039.50;5090905;28;20193;-78
2022/06/09 01:01:49;;;;;;;4.65;4.10;;;;;;;22.47;68.62;94044.69;5090790;28;20196;-82
2022/06/09 01:04:20;;;;;;;6.03;5.25;;;;;;;22.46;68.49;94046.50;5091278;28;20189;-81
2022/06/09 01:06:51;;;;;;;7.63;4.95;;;;;;;22.31;68.35;94020.09;5090351;28;20254;-78
2022/06/09 01:09:20;;;;;;;5.18;4.60;;;;;;;22.42;68.53;94039.38;5102844;28;20196;-84
2022/06/09 01:11:49;;;;;;;4.88;4.38;;;;;;;22.45;68.52;94038.91;5111545;28;20303;-85
2022/06/09 01:14:20;;;;;;;6.30;4.30;;;;;;;22.45;68.42;94033.69;5110616;28;20196;-83
2022/06/09 01:16:57;;;;;;;4.63;4.22;;;;;;;22.46;68.43;94040.50;5111353;28;20199;-80
2022/06/09 01:19:57;;;;;;;6.95;4.22;;;;;;;22.44;68.24;94045.16;5110989;28;20176;-85
2022/06/09 01:22:54;;;;;;;3.90;3.60;;;;;;;22.42;68.29;94044.59;5114428;28;20196;-85
2022/06/09 01:26:06;;;;;;;4.32;3.80;;;;;;;22.36;68.30;94037.66;5115809;28;20260;-83
2022/06/09 01:28:58;;;;;;;6.65;3.80;;;;;;;22.28;68.34;94023.97;4953503;29;20204;-84
2022/06/09 01:31:31;;;;;;;4.07;3.67;;;;;;;22.32;68.38;94028.72;4953974;29;20589;-83
2022/06/09 01:34:06;;;;;;;4.65;4.15;;;;;;;22.32;68.26;94026.09;4953449;29;20201;-83
2022/06/09 01:36:41;;;;;;;3.92;3.60;;;;;;;22.15;68.17;94013.78;4953953;29;20201;-84
2022/06/09 01:39:08;;;;;;;3.75;3.45;;;;;;;22.27;68.21;94035.38;4953821;29;20194;-81
2022/06/09 01:41:36;;;;;;;5.35;3.60;;;;;;;22.24;68.28;94022.84;4960928;29;20202;-83
2022/06/09 01:44:05;;;;;;;8.73;3.75;;;;;;;22.25;68.36;94015.81;4963793;28;20221;-83
2022/06/09 01:46:35;;;;;;;4.43;4.03;;;;;;;22.22;68.26;94016.25;4955381;28;20194;-80
2022/06/09 01:49:06;;;;;;;3.83;3.50;;;;;;;22.22;68.26;94026.69;4934786;29;20234;-82
2022/06/09 01:51:37;;;;;;;5.22;3.75;;;;;;;22.20;68.38;94028.72;4945867;28;20597;-80
2022/06/09 01:54:07;;;;;;;6.45;4.22;;;;;;;22.18;68.17;94033.34;4953945;29;20205;-84
2022/06/09 01:56:39;;;;;;;6.80;3.78;;;;;;;22.17;68.11;94031.78;4954281;29;20198;-81
2022/06/09 01:59:10;;;;;;;4.30;3.90;;;;;;;22.15;68.42;94036.41;4953661;29;20298;-84
2022/06/09 02:01:42;;;;;;;7.07;3.97;;;;;;;22.15;68.30;94031.19;4952436;29;20521;-84
2022/06/09 02:04:20;;;;;;;7.20;3.45;;;;;;;22.14;68.45;94032.22;4967880;28;20226;-81
2022/06/09 02:06:49;;;;;;;4.55;3.58;;;;;;;22.12;68.35;94029.03;5104444;28;20699;-84
2022/06/09 02:09:16;;;;;;;4.15;3.78;;;;;;;22.13;68.34;94031.44;5093898;28;20859;-84
2022/06/09 02:11:49;;;;;;;6.15;3.85;;;;;;;22.11;68.34;94035.25;5093958;28;20256;-85
2022/06/09 02:14:18;;;;;;;4.22;3.45;;;;;;;22.10;68.36;94026.63;5093746;28;20190;-85
2022/06/09 02:16:46;;;;;;;4.63;3.58;;;;;;;22.08;68.28;94028.69;5093589;28;20193;-85
2022/06/09 02:19:13;;;;;;;6.45;3.42;;;;;;;22.08;68.39;94022.69;5094030;28;20511;-79
2022/06/09 02:21:41;;;;;;;4.55;3.65;;;;;;;21.93;68.38;94010.06;5127426;28;20256;-80
2022/06/09 02:24:08;;;;;;;5.03;4.10;;;;;;;22.04;68.34;94030.16;5138663;28;20242;-75
2022/06/09 02:26:35;;;;;;;5.07;3.95;;;;;;;22.02;68.48;94027.78;5138008;28;20165;-78
2022/06/09 02:29:02;;;;;;;3.95;3.65;;;;;;;22.01;68.29;94038.41;5139186;28;20185;-77
2022/06/09 02:31:29;;;;;;;6.20;3.95;;;;;;;21.99;68.37;94043.84;5137496;28;20197;-76
2022/06/09 02:33:57;;;;;;;6.97;3.95;;;;;;;21.98;68.37;94047.47;5139398;28;20189;-75
2022/06/09 02:36:25;;;;;;;6.47;3.80;;;;;;;21.97;68.27;94048.47;5138097;28;20203;-82
2022/06/09 02:38:52;;;;;;;5.88;3.63;;;;;;;21.91;68.56;94041.56;5138538;28;20197;-81
2022/06/09 02:41:19;;;;;;;4.93;4.00;;;;;;;21.97;68.48;94050.28;5137993;28;20197;-77
2022/06/09 02:43:46;;;;;;;4.50;3.80;;;;;;;21.95;68.68;94055.72;5137715;28;20169;-79
2022/06/09 02:46:13;;;;;;;4.85;3.42;;;;;;;21.94;68.51;94051.53;5119796;28;20186;-80
2022/06/09 02:48:41;;;;;;;4.70;3.55;;;;;;;21.93;68.54;94054.34;5118553;28;20221;-78
2022/06/09 02:51:25;;;;;;;4.53;4.00;;;;;;;21.92;68.65;94050.16;5117663;28;20178;-76
2022/06/09 02:53:53;;;;;;;9.32;4.13;;;;;;;21.92;68.67;94050.94;5117922;28;20184;-77
2022/06/09 02:56:20;;;;;;;7.05;4.00;;;;;;;21.91;68.53;94048.56;5117430;28;20315;-81
2022/06/09 02:58:46;;;;;;;6.47;3.65;;;;;;;21.86;68.68;94038.84;5117617;28;20190;-79
2022/06/09 03:01:13;;;;;;;4.70;4.30;;;;;;;21.91;68.67;94048.56;5133705;28;20203;-84
2022/06/09 03:03:40;;;;;;;5.70;4.47;;;;;;;21.90;68.64;94039.97;5113257;28;20181;-81
2022/06/09 03:06:08;;;;;;;6.00;4.50;;;;;;;21.85;68.86;94037.25;5112928;28;20664;-85
2022/06/09 03:08:36;;;;;;;5.95;5.30;;;;;;;21.90;68.94;94039.19;5114086;28;20271;-84
2022/06/09 03:11:03;;;;;;;8.80;4.87;;;;;;;21.91;69.09;94046.75;5113233;28;20193;-86
2022/06/09 03:13:30;;;;;;;5.35;4.93;;;;;;;21.93;69.14;94043.91;5113011;28;20892;-83
2022/06/09 03:15:57;;;;;;;5.68;4.90;;;;;;;21.94;69.38;94042.94;5093062;28;20201;-82
2022/06/09 03:18:25;;;;;;;6.32;5.15;;;;;;;21.93;69.28;94049.13;5092226;28;20188;-83
2022/06/09 03:20:52;;;;;;;6.50;5.68;;;;;;;21.96;69.46;94046.09;5092958;28;20342;-83
2022/06/09 03:23:19;;;;;;;6.95;5.43;;;;;;;21.97;69.60;94042.47;5101390;28;20271;-83
2022/06/09 03:25:48;;;;;;;7.90;5.60;;;;;;;22.00;69.56;94050.63;5113249;28;20270;-83
2022/06/09 03:28:15;;;;;;;5.87;5.37;;;;;;;22.02;69.40;94047.78;5119648;28;20201;-83
2022/06/09 03:30:42;;;;;;;11.30;6.72;;;;;;;22.03;69.44;94052.78;5111756;28;20200;-83
2022/06/09 03:33:09;;;;;;;8.85;5.97;;;;;;;22.08;69.60;94056.53;5112597;28;20208;-84
2022/06/09 03:35:37;;;;;;;7.73;7.00;;;;;;;22.10;69.31;94057.09;5112689;28;20195;-83
2022/06/09 03:38:04;;;;;;;6.85;6.13;;;;;;;22.12;69.37;94055.88;5113047;28;20193;-81
2022/06/09 03:40:31;;;;;;;7.38;6.68;;;;;;;22.14;69.47;94051.25;5112961;28;20217;-83
2022/06/09 03:43:02;;;;;;;7.95;6.70;;;;;;;22.17;69.42;94044.78;5099150;28;20186;-77
2022/06/09 03:45:29;;;;;;;9.10;8.13;;;;;;;22.21;69.43;94049.31;5092771;28;20580;-83
2022/06/09 03:47:56;;;;;;;8.65;6.85;;;;;;;22.28;69.28;94049.25;5092050;28;20229;-83
2022/06/09 03:50:26;;;;;;;8.93;7.53;;;;;;;22.37;69.12;94050.47;5094312;28;20190;-83
2022/06/09 03:52:52;;;;;;;7.70;6.82;;;;;;;22.45;68.67;94049.31;5092548;28;20225;-82
2022/06/09 03:55:20;;;;;;;11.27;7.88;;;;;;;22.52;68.59;94047.41;5092307;28;20185;-84
2022/06/09 03:57:47;;;;;;;11.23;8.20;;;;;;;22.56;68.39;94052.97;5091834;28;20193;-83
2022/06/09 04:00:19;;;;;;;9.30;8.32;;;;;;;22.58;68.47;94049.09;5091275;28;20669;-83
2022/06/09 04:02:46;;;;;;;11.32;7.93;;;;;;;22.61;68.27;94046.03;5109328;28;20663;-84
2022/06/09 04:05:14;;;;;;;10.00;8.27;;;;;;;22.64;68.20;94045.59;5111669;28;20205;-79
2022/06/09 04:07:44;;;;;;;10.27;8.35;;;;;;;22.70;67.90;94043.88;5111632;28;20614;-84
2022/06/09 04:10:17;;;;;;;12.60;10.35;;;;;;;22.74;67.77;94047.63;5111837;28;20202;-84
2022/06/09 04:12:44;;;;;;;12.57;11.25;;;;;;;22.77;67.90;94047.16;5110170;28;20223;-82
2022/06/09 04:15:11;;;;;;;12.02;9.90;;;;;;;22.78;67.55;94049.53;5093229;28;20189;-85
2022/06/09 04:17:40;;;;;;;14.30;10.55;;;;;;;22.82;67.62;94046.47;5097273;28;20209;-84
2022/06/09 04:20:08;;;;;;;15.27;9.82;;;;;;;22.84;67.59;94041.81;5098762;28;20185;-81
2022/06/09 04:22:35;;;;;;;10.75;9.35;;;;;;;22.84;67.47;94042.63;5100775;28;20185;-84
2022/06/09 04:25:02;;;;;;;10.65;8.73;;;;;;;22.83;67.37;94041.03;5105501;28;20197;-81
2022/06/09 04:27:29;;;;;;;9.82;8.45;;;;;;;22.87;67.53;94043.97;5110266;28;20196;-83
2022/06/09 04:29:57;;;;;;;10.40;9.23;;;;;;;22.88;67.59;94035.91;5122056;28;20549;-84
2022/06/09 04:32:24;;;;;;;13.80;11.48;;;;;;;22.89;67.38;94036.72;5092036;28;20640;-83
2022/06/09 04:34:53;;;;;;;13.65;11.15;;;;;;;22.95;67.44;94038.44;5091935;28;20197;-82
2022/06/09 04:37:20;;;;;;;14.48;11.48;;;;;;;22.99;67.01;94036.97;5093263;28;20685;-83
2022/06/09 04:39:46;;;;;;;9.93;4.53;;;;;;;23.12;73.71;94041.13;5095372;28;20620;-79
2022/06/09 04:42:13;;;;;;;5.32;4.03;;;;;;;23.39;74.88;94044.78;5091966;28;20189;-85
2022/06/09 04:44:41;;;;;;;12.07;5.22;;;;;;;23.70;74.11;94042.75;5091118;28;20205;-81
2022/06/09 04:47:08;;;;;;;5.90;5.15;;;;;;;23.97;73.10;94038.53;5090627;28;20277;-82
2022/06/09 04:49:34;;;;;;;6.57;4.70;;;;;;;24.26;72.04;94041.81;5090630;28;20616;-82
2022/06/09 04:52:03;;;;;;;8.13;5.70;;;;;;;24.45;70.30;94039.81;5090821;28;20660;-86
2022/06/09 04:54:30;;;;;;;8.52;7.63;;;;;;;24.68;68.17;94048.47;5091334;28;20196;-79
2022/06/09 04:56:57;;;;;;;11.45;7.78;;;;;;;24.87;67.35;94035.91;5097199;28;20692;-77
2022/06/09 04:59:25;;;;;;;8.40;7.28;;;;;;;25.04;66.19;94044.50;5098141;28;20189;-80
2022/06/09 05:01:52;;;;;;;9.00;7.13;;;;;;;25.20;65.54;94041.06;5096964;28;20260;-81
2022/06/09 05:04:19;;;;;;;7.85;7.00;;;;;;;25.36;64.84;94036.78;5106184;28;20199;-76
2022/06/09 05:06:46;;;;;;;9.27;7.65;;;;;;;25.54;64.39;94043.53;5114569;28;20185;-77
2022/06/09 05:09:15;;;;;;;10.50;7.38;;;;;;;25.71;64.11;94040.81;5115275;28;20192;-88
2022/06/09 05:11:42;;;;;;;8.15;7.28;;;;;;;25.97;63.62;94047.88;5115007;28;20239;-85
2022/06/09 05:14:10;;;;;;;7.78;6.72;;;;;;;26.22;63.30;94042.06;5115100;28;20184;-83
2022/06/09 05:16:38;;;;;;;7.63;6.28;;;;;;;26.38;62.36;94031.69;5113105;28;20188;-79
2022/06/09 05:19:04;;;;;;;10.23;6.68;;;;;;;26.53;61.81;94031.81;5115555;28;20223;-78
2022/06/09 05:21:31;;;;;;;12.63;7.45;;;;;;;26.60;61.12;94034.22;5098341;28;20193;-82
2022/06/09 05:23:58;;;;;;;8.13;6.63;;;;;;;26.68;60.24;94033.72;5096847;28;20200;-80
2022/06/09 05:26:26;;;;;;;6.75;6.07;;;;;;;26.74;60.17;94033.53;5096931;28;20189;-81
2022/06/09 05:28:54;;;;;;;8.23;6.32;;;;;;;26.83;59.51;94036.47;5096676;28;20194;-81
2022/06/09 05:31:21;;;;;;;8.32;6.63;;;;;;;26.92;58.81;94044.63;5096996;28;20264;-77
2022/06/09 05:33:47;;;;;;;9.82;5.88;;;;;;;27.00;58.55;94041.53;5097147;28;20228;-83
2022/06/09 05:36:14;;;;;;;7.00;6.28;;;;;;;27.05;58.28;94031.03;5097432;28;20182;-80
2022/06/09 05:46:57;;;;;;;5.75;5.25;;;;;;;27.92;59.66;94036.59;5096083;28;20247;-76
2022/06/09 05:49:24;;;;;;;5.60;5.10;;;;;;;28.43;59.77;94050.56;5096763;28;20245;-80
2022/06/09 05:51:52;;;;;;;6.50;5.03;;;;;;;29.02;58.92;94040.44;5097028;28;20280;-81
2022/06/09 05:54:19;;;;;;;5.15;4.65;;;;;;;29.69;58.06;94032.00;5097061;28;20207;-76
2022/06/09 05:56:47;;;;;;;5.65;4.43;;;;;;;30.34;55.83;94031.81;5096878;28;20665;-83
2022/06/09 05:59:14;;;;;;;6.00;4.57;;;;;;;30.87;53.92;94039.00;5097890;28;20189;-75
2022/06/09 06:01:41;;;;;;;4.50;4.20;;;;;;;31.20;51.45;94045.22;5113774;28;20658;-78
2022/06/09 06:04:10;;;;;;;5.25;4.80;;;;;;;31.41;50.21;94037.88;5116946;28;20189;-80
2022/06/09 06:06:37;;;;;;;5.10;4.57;;;;;;;31.53;49.16;94037.47;5115733;28;20196;-77
2022/06/09 06:09:06;;;;;;;4.95;4.40;;;;;;;31.70;48.47;94037.75;5112325;28;20691;-86
2022/06/09 06:11:35;;;;;;;6.65;4.75;;;;;;;31.84;48.21;94035.22;5097972;28;20192;-76
2022/06/09 06:14:03;;;;;;;5.68;4.85;;;;;;;32.00;47.26;94036.56;5110699;28;20221;-81
2022/06/09 06:16:30;;;;;;;5.13;4.63;;;;;;;32.11;46.77;94032.66;5115088;28;20195;-84
2022/06/09 06:18:57;;;;;;;7.28;5.07;;;;;;;32.26;46.32;94030.88;5124935;28;20199;-73
2022/06/09 06:21:25;;;;;;;4.78;4.25;;;;;;;32.38;45.96;94032.00;5128622;28;20188;-74
2022/06/09 06:23:53;;;;;;;5.13;4.72;;;;;;;32.58;46.03;94030.09;5127796;28;20234;-81
2022/06/09 06:26:20;;;;;;;6.07;4.50;;;;;;;32.90;46.32;94024.75;5114787;28;20189;-86
2022/06/09 06:28:47;;;;;;;5.00;4.50;;;;;;;33.30;46.21;94026.91;5114007;28;20246;-80
2022/06/09 06:31:15;;;;;;;4.43;3.97;;;;;;;33.71;45.48;94021.53;5114307;28;20640;-82
2022/06/09 06:33:42;;;;;;;5.00;4.22;;;;;;;34.04;44.41;94024.81;5113488;28;20224;-78
2022/06/09 06:36:11;;;;;;;4.47;4.10;;;;;;;34.41;44.06;94026.31;5112085;28;20600;-76
2022/06/09 06:38:38;;;;;;;9.10;5.10;;;;;;;34.84;43.37;94027.63;5115544;28;20213;-75
2022/06/09 06:41:06;;;;;;;5.15;4.65;;;;;;;35.21;42.39;94025.59;5124380;28;20208;-80
2022/06/09 06:43:33;;;;;;;5.45;4.10;;;;;;;35.44;41.63;94013.75;5124148;28;20200;-76
2022/06/09 06:46:00;;;;;;;4.57;4.18;;;;;;;35.58;40.69;94017.09;5117841;28;20197;-79
2022/06/09 06:48:28;;;;;;;5.75;4.38;;;;;;;35.64;40.17;94015.06;5091191;28;20232;-79
2022/06/09 06:50:55;;;;;;;4.63;4.18;;;;;;;35.75;39.66;94012.88;5099325;28;20200;-81
2022/06/09 06:53:22;;;;;;;4.47;4.07;;;;;;;35.92;39.66;94013.66;5092564;28;20213;-78
2022/06/09 06:55:49;;;;;;;6.93;4.10;;;;;;;36.15;39.84;94022.28;5096091;28;20201;-74
2022/06/09 06:58:16;;;;;;;5.38;3.83;;;;;;;36.39;39.51;94008.44;5093280;28;20186;-73
2022/06/09 07:00:44;;;;;;;4.97;3.83;;;;;;;36.83;39.13;94021.66;5097561;28;20195;-77
2022/06/09 07:03:12;;;;;;;4.20;3.50;;;;;;;37.22;38.83;94017.94;5090966;28;20196;-77
2022/06/09 07:05:41;;;;;;;5.40;3.95;;;;;;;37.64;38.28;94013.44;5092914;28;20260;-85
2022/06/09 07:08:08;;;;;;;4.40;4.00;;;;;;;38.04;37.73;94021.03;5092115;28;20186;-85
2022/06/09 07:10:36;;;;;;;4.93;3.90;;;;;;;38.43;36.81;94018.16;5092366;28;20201;-81
2022/06/09 07:13:04;;;;;;;4.97;3.83;;;;;;;38.75;36.46;94019.25;5095757;28;20230;-77
2022/06/09 07:15:31;;;;;;;6.18;4.07;;;;;;;39.07;35.83;94015.72;5093764;28;20199;-79
2022/06/09 07:17:58;;;;;;;4.35;3.92;;;;;;;39.40;35.30;94014.84;5093296;28;20189;-81
2022/06/09 07:20:26;;;;;;;7.22;4.05;;;;;;;39.67;34.53;94002.66;5096286;28;20192;-79
2022/06/09 07:22:54;;;;;;;4.10;3.58;;;;;;;39.89;34.17;94017.44;5092471;28;20190;-85
2022/06/09 07:25:24;;;;;;;4.30;3.90;;;;;;;40.08;33.99;94019.50;5099303;28;20197;-83
2022/06/09 07:27:52;;;;;;;6.30;4.00;;;;;;;40.29;33.18;94014.75;5094072;28;20276;-83
2022/06/09 07:30:19;;;;;;;5.18;4.18;;;;;;;40.49;33.02;94010.28;5095081;28;20243;-83
2022/06/09 07:32:47;;;;;;;4.70;4.22;;;;;;;40.66;32.67;94019.16;5093985;28;20211;-85
2022/06/09 07:35:17;;;;;;;7.25;4.50;;;;;;;40.81;32.66;94016.50;5091414;28;20811;-82
2022/06/09 07:37:44;;;;;;;4.47;4.18;;;;;;;40.99;32.17;94013.50;5092144;28;20665;-83
2022/06/09 07:40:14;;;;;;;6.40;4.65;;;;;;;41.17;31.91;94005.84;5093687;28;20194;-83
2022/06/09 07:42:42;;;;;;;10.18;4.32;;;;;;;41.36;31.75;94008.56;5091870;28;20190;-84
2022/06/09 07:45:11;;;;;;;6.30;4.57;;;;;;;41.54;31.31;94006.31;5093067;28;20186;-81
2022/06/09 07:47:38;;;;;;;5.95;4.50;;;;;;;41.71;31.00;94008.59;5091861;28;20295;-82
2022/06/09 07:50:08;;;;;;;5.28;4.40;;;;;;;41.84;30.61;93999.31;5091751;28;20231;-84
2022/06/09 07:52:36;;;;;;;5.35;4.50;;;;;;;41.90;30.48;93990.97;5094871;28;20196;-85
2022/06/09 07:55:03;;;;;;;4.55;4.07;;;;;;;41.95;30.28;93983.41;5092636;28;20223;-85
2022/06/09 07:57:31;;;;;;;6.45;4.20;;;;;;;42.05;30.24;93990.88;5091131;28;20204;-83
2022/06/09 07:59:59;;;;;;;7.43;5.13;;;;;;;42.13;30.32;93982.97;5088491;28;20185;-83
2022/06/09 08:02:26;;;;;;;5.55;4.93;;;;;;;42.19;29.65;93985.03;5093985;28;20193;-82
2022/06/09 08:04:53;;;;;;;7.05;4.63;;;;;;;42.22;29.98;93973.56;5095335;28;20197;-77
2022/06/09 08:07:21;;;;;;;4.55;4.15;;;;;;;42.25;29.94;93966.72;5093917;28;20208;-74
2022/06/09 08:09:48;;;;;;;6.28;4.70;;;;;;;42.30;29.62;93969.88;5090262;28;20207;-84
2022/06/09 08:12:15;;;;;;;7.05;5.05;;;;;;;42.32;29.84;93980.28;5091980;28;20195;-81
2022/06/09 08:14:43;;;;;;;8.65;4.60;;;;;;;42.33;29.78;93976.47;5096641;28;20588;-83
2022/06/09 08:17:11;;;;;;;6.07;4.88;;;;;;;42.33;28.97;93976.47;5091300;28;20196;-82
2022/06/09 08:19:38;;;;;;;7.95;4.80;;;;;;;42.32;29.14;93978.38;5092743;28;20203;-77
2022/06/09 08:22:05;;;;;;;5.20;4.40;;;;;;;42.30;29.19;93972.56;5091909;28;20189;-79
2022/06/09 08:24:33;;;;;;;6.88;5.03;;;;;;;42.28;29.17;93972.16;5090116;28;20193;-84
2022/06/09 08:27:00;;;;;;;5.22;4.72;;;;;;;42.27;28.75;93962.50;5096226;28;20702;-85
2022/06/09 08:29:29;;;;;;;7.65;5.40;;;;;;;42.24;28.88;93968.63;5088884;28;20276;-85
2022/06/09 08:31:57;;;;;;;8.23;4.85;;;;;;;42.14;28.73;93958.41;5090910;28;20250;-84
2022/06/09 08:34:25;;;;;;;6.53;4.78;;;;;;;42.12;28.40;93960.69;5090091;28;20197;-85
2022/06/09 08:36:52;;;;;;;5.05;4.55;;;;;;;42.04;28.83;93959.78;5091346;28;20188;-81
2022/06/09 08:39:20;;;;;;;4.60;4.20;;;;;;;41.98;28.62;93961.22;5097414;28;20259;-83
2022/06/09 08:41:58;;;;;;;10.98;5.88;;;;;;;41.92;28.92;93953.78;5093223;28;20189;-83
2022/06/09 08:44:34;;;;;;;5.82;4.97;;;;;;;41.85;28.75;93954.44;5091807;28;20184;-84
2022/06/09 08:47:12;;;;;;;5.47;4.85;;;;;;;41.73;29.03;93952.63;5091440;28;20208;-80
2022/06/09 08:49:53;;;;;;;6.80;5.25;;;;;;;41.60;29.11;93957.34;5093215;28;20240;-83
2022/06/09 08:52:45;;;;;;;7.15;5.60;;;;;;;41.49;29.11;93959.03;5089757;28;20193;-86
2022/06/09 08:55:21;;;;;;;8.60;5.47;;;;;;;41.36;29.55;93955.66;5023588;28;20210;-85
2022/06/09 08:57:50;;;;;;;7.13;5.20;;;;;;;41.26;29.48;93947.41;5030493;28;20195;-85
2022/06/09 09:00:22;;;;;;;9.30;4.68;;;;;;;41.14;29.03;93939.44;5030039;28;20725;-79
2022/06/09 09:02:53;;;;;;;7.05;5.00;;;;;;;41.00;29.34;93948.75;5031331;28;20199;-81
2022/06/09 09:05:29;;;;;;;6.22;4.90;;;;;;;40.83;29.68;93936.44;5027934;28;20196;-81
2022/06/09 09:08:00;;;;;;;5.78;4.80;;;;;;;40.67;29.90;93935.66;5036463;28;20184;-79
2022/06/09 09:10:38;;;;;;;6.97;5.28;;;;;;;40.49;29.73;93923.72;5029987;28;20717;-75
2022/06/09 09:13:20;;;;;;;5.85;4.72;;;;;;;40.40;29.90;93929.25;5027435;28;20713;-77
2022/06/09 09:15:52;;;;;;;6.50;4.63;;;;;;;40.23;30.07;93926.91;5028755;28;20188;-76
2022/06/09 09:18:35;;;;;;;4.95;4.45;;;;;;;40.08;30.06;93931.88;5024601;28;20187;-74
2022/06/09 09:21:22;;;;;;;6.70;4.80;;;;;;;39.91;29.92;93924.16;5024131;28;20196;-80
2022/06/09 09:24:07;;;;;;;5.47;4.90;;;;;;;39.73;30.06;93914.88;5023590;28;20182;-76
2022/06/09 09:26:49;;;;;;;6.60;4.72;;;;;;;39.58;30.09;93911.75;5022095;28;20196;-76
2022/06/09 09:29:24;;;;;;;5.18;4.78;;;;;;;39.42;30.11;93910.13;5031046;28;20214;-79
2022/06/09 09:31:55;;;;;;;5.38;4.88;;;;;;;39.27;30.31;93906.28;5053129;28;20205;-74
2022/06/09 09:34:25;;;;;;;5.10;4.60;;;;;;;39.11;30.93;93911.50;5091516;28;20205;-81
2022/06/09 09:36:58;;;;;;;8.98;4.82;;;;;;;38.90;31.06;93900.94;5099675;28;20186;-78
2022/06/09 09:39:34;;;;;;;8.43;5.03;;;;;;;38.66;31.00;93888.38;5103289;28;20676;-74
2022/06/09 09:42:12;;;;;;;6.05;4.97;;;;;;;38.39;31.17;93892.47;5099787;28;20208;-80
2022/06/09 09:44:40;;;;;;;7.25;4.45;;;;;;;38.14;31.40;93892.41;5101021;28;20205;-80
2022/06/09 09:47:07;;;;;;;7.20;4.50;;;;;;;37.90;31.59;93882.44;5104236;28;20182;-77
2022/06/09 09:49:41;;;;;;;5.10;4.70;;;;;;;37.72;31.53;93880.25;5104934;28;20257;-75
2022/06/09 09:52:40;;;;;;;7.63;4.97;;;;;;;37.50;31.68;93876.84;5106148;28;20198;-78
2022/06/09 09:55:27;;;;;;;8.48;5.45;;;;;;;37.35;32.10;93875.53;5107437;28;20224;-77
2022/06/09 09:58:16;;;;;;;6.55;4.50;;;;;;;37.20;32.06;93875.34;5107423;28;20189;-74
2022/06/09 10:00:45;;;;;;;7.75;4.90;;;;;;;37.06;32.06;93871.03;5119453;28;20641;-78
2022/06/09 10:08:53;;;;;;;5.40;4.90;;;;;;;36.76;32.55;93859.59;5114033;28;20679;-79
2022/06/09 10:14:28;;;;;;;7.43;5.30;;;;;;;36.52;32.79;93870.06;5112340;28;20618;-83
2022/06/09 10:16:57;;;;;;;8.23;5.25;;;;;;;36.39;33.02;93869.16;5111861;28;20220;-81
2022/06/09 10:19:27;;;;;;;6.72;4.80;;;;;;;36.28;32.97;93870.63;5112317;28;20204;-77
2022/06/09 10:21:58;;;;;;;6.50;4.53;;;;;;;36.14;33.18;93863.66;5114449;27;20188;-82
2022/06/09 10:24:33;;;;;;;5.15;4.65;;;;;;;36.01;33.27;93858.50;5112876;28;20208;-83
2022/06/09 10:27:00;;;;;;;7.90;4.57;;;;;;;35.86;33.45;93857.88;5112490;28;20196;-82
2022/06/09 10:29:33;;;;;;;7.85;4.38;;;;;;;35.73;33.86;93853.53;5112584;28;20193;-82
2022/06/09 10:32:05;;;;;;;8.77;4.57;;;;;;;35.60;33.77;93846.53;5112449;28;20193;-83
2022/06/09 10:34:39;;;;;;;6.38;4.47;;;;;;;35.53;33.74;93843.56;5112777;28;20259;-78
2022/06/09 10:37:19;;;;;;;4.95;4.45;;;;;;;35.47;33.93;93840.28;5112448;28;20185;-82
2022/06/09 10:39:51;;;;;;;6.80;4.50;;;;;;;35.39;33.90;93831.19;5111590;28;20575;-82
2022/06/09 10:42:26;;;;;;;6.68;4.78;;;;;;;35.33;33.93;93835.13;5111257;28;20287;-79
2022/06/09 10:45:04;;;;;;;6.53;4.88;;;;;;;35.27;34.23;93835.56;5110914;28;20196;-82
2022/06/09 10:56:17;;;;;;;5.72;4.50;;;;;;;34.86;34.52;93829.59;5110338;28;20650;-78
2022/06/09 10:58:49;;;;;;;7.15;4.75;;;;;;;34.75;34.68;93823.00;5111623;28;20181;-79
2022/06/09 11:01:21;;;;;;;5.22;4.35;;;;;;;34.64;34.49;93822.53;5112124;28;20333;-82
2022/06/09 11:03:50;;;;;;;4.60;4.13;;;;;;;34.56;34.59;93815.34;5109929;28;20188;-74
2022/06/09 11:06:27;;;;;;;5.63;5.07;;;;;;;34.48;34.79;93812.66;5093327;28;20189;-76
2022/06/09 11:09:11;;;;;;;7.47;4.25;;;;;;;34.39;34.64;93807.31;5111065;28;20185;-82
2022/06/09 11:11:48;;;;;;;4.55;3.92;;;;;;;34.33;34.88;93808.56;5110797;28;20248;-80
2022/06/09 11:14:33;;;;;;;4.60;4.13;;;;;;;34.27;34.97;93813.19;5112387;28;20220;-78
2022/06/09 11:17:18;;;;;;;8.23;4.80;;;;;;;34.18;34.80;93802.56;5111665;28;20204;-78
2022/06/09 11:19:58;;;;;;;6.65;4.28;;;;;;;34.11;35.02;93796.13;5112299;28;20181;-80
2022/06/09 11:22:36;;;;;;;4.20;3.83;;;;;;;34.06;35.10;93802.34;5112550;28;20200;-76
2022/06/09 11:25:26;;;;;;;8.10;4.10;;;;;;;34.01;34.97;93797.19;5115075;28;20196;-78
2022/06/09 11:28:05;;;;;;;4.65;4.25;;;;;;;33.95;34.94;93795.75;5112111;28;20678;-76
2022/06/09 11:30:53;;;;;;;4.32;3.88;;;;;;;33.89;35.24;93791.63;5118309;28;20193;-78
2022/06/09 11:33:34;;;;;;;5.18;4.60;;;;;;;33.86;34.86;93789.63;5109261;27;20283;-81
2022/06/09 11:36:09;;;;;;;4.65;4.18;;;;;;;33.80;35.06;93788.94;5110612;28;20920;-75
2022/06/09 11:38:47;;;;;;;6.03;3.72;;;;;;;33.75;34.78;93781.13;5112154;28;20184;-79
2022/06/09 11:41:26;;;;;;;6.65;4.47;;;;;;;33.67;35.03;93780.00;5112365;28;20193;-81
2022/06/09 11:44:14;;;;;;;4.07;3.63;;;;;;;33.63;35.03;93768.44;5112726;28;20193;-78
2022/06/09 11:46:43;;;;;;;4.28;3.88;;;;;;;33.58;35.02;93760.63;5113051;28;20189;-76
2022/06/09 11:49:15;;;;;;;4.15;3.58;;;;;;;33.56;35.03;93756.72;5124629;28;20248;-81
2022/06/09 11:51:42;;;;;;;7.53;4.30;;;;;;;33.51;35.04;93757.63;5126026;27;20211;-78
2022/06/09 11:54:41;;;;;;;6.20;3.95;;;;;;;33.47;34.79;93758.53;5123367;28;20208;-81
2022/06/09 11:57:42;;;;;;;8.77;3.72;;;;;;;33.38;35.20;93759.25;5113029;28;20204;-80
2022/06/09 12:00:38;;;;;;;3.97;3.60;;;;;;;33.27;35.32;93752.63;5115786;28;20196;-82
2022/06/09 12:03:54;;;;;;;5.53;4.15;;;;;;;33.16;35.75;93756.59;5115985;27;20182;-82
2022/06/09 12:06:29;;;;;;;6.45;4.30;;;;;;;33.03;35.70;93755.56;5039997;28;20267;-82
2022/06/09 12:09:05;;;;;;;5.13;3.83;;;;;;;32.91;35.50;93753.47;5042894;28;20181;-81
2022/06/09 12:11:54;;;;;;;4.75;3.92;;;;;;;32.81;35.72;93750.25;5032400;28;20192;-83
2022/06/09 12:14:27;;;;;;;4.18;3.53;;;;;;;32.71;35.73;93744.09;5033747;28;20287;-83
2022/06/09 12:16:59;;;;;;;4.80;3.92;;;;;;;32.63;36.28;93751.97;5037371;28;20215;-83